• Join FlightAware (Why Join?)
  • Login
  • US Flag 
05:53PM EDT


 

Airport Tracker/Info


-or-


 

Live Flight TrackerFlight Track Log ✈ BAD440 ✈ 05-May-2012 ✈ KAPA - KBIL

Flight Track Log - Related Links

Times and Time Zones

All times are in EDT time to prevent confusion due to time zone crossing. See the BAD440 flight status page for this flight to view local times or setup timezone preferences in your user account.

Time Position Orientation Groundspeed Altitude Reporting Facility
EDT Latitude Longitude Course Direction KTS MPH feet Rate Location/Type
04:32AM 39.5500 -104.8500 332° Northwest 153 176 6,500  Level Denver TRACON
04:37AM 39.7667 -105.0000 337° Northwest 220 253 13,700 1,440 Climbing Denver TRACON
04:38AM 39.8392 -105.0400 337° Northwest 240 276 15,600 1,020 Climbing Denver Center
04:39AM 39.9000 -105.0739 334° Northwest 247 284 16,000 180 Climbing Denver Center
04:40AM 39.9611 -105.1133 338° Northwest 252 290 16,000  Level Denver Center
04:41AM 40.0386 -105.1550 339° North 281 323 16,000  Level Denver Center
04:42AM 40.1161 -105.1944 342° North 295 339 16,000 -60 Level Denver Center
04:43AM 40.1936 -105.2283 338° Northwest 295 339 15,900  Descending Denver Center
04:44AM 40.2733 -105.2703 340° North 295 339 16,000  Climbing Denver Center
04:45AM 40.3489 -105.3072 339° North 295 339 16,000  Level Denver Center
04:46AM 40.4328 -105.3494 339° North 295 339 16,000  Level Denver Center
04:47AM 40.5122 -105.3889 338° Northwest 295 339 16,000 -60 Level Denver Center
04:48AM 40.5856 -105.4289 340° North 295 339 15,900  Descending Denver Center
04:49AM 40.6611 -105.4661 337° Northwest 295 339 16,000  Climbing Denver Center
04:50AM 40.7386 -105.5086 340° North 295 339 16,000  Level Denver Center
04:51AM 40.8158 -105.5461 340° North 290 334 16,000  Level Denver Center
04:52AM 40.8892 -105.5806 335° Northwest 290 334 16,000 -60 Level Denver Center
04:53AM 40.9625 -105.6264 343° North 290 334 15,900  Descending Denver Center
04:54AM 41.0336 -105.6558 336° Northwest 290 334 16,000  Climbing Denver Center
04:55AM 41.1153 -105.7044 336° Northwest 295 339 16,000  Level Denver Center
04:56AM 41.1883 -105.7478 335° Northwest 295 339 16,000  Level Denver Center
04:57AM 41.2639 -105.7939 337° Northwest 295 339 16,000  Level Denver Center
04:58AM 41.3350 -105.8347 335° Northwest 302 348 16,000  Level Denver Center
04:59AM 41.4144 -105.8836 335° Northwest 297 342 16,000  Level Denver Center
05:00AM 41.4897 -105.9303 335° Northwest 297 342 16,000  Level Denver Center
05:01AM 41.5650 -105.9767 332° Northwest 297 342 16,000  Level Denver Center
05:02AM 41.6297 -106.0233 338° Northwest 297 342 16,000  Level Denver Center
05:03AM 41.7153 -106.0703 335° Northwest 302 348 16,000  Level Denver Center
05:04AM 41.7906 -106.1169 336° Northwest 297 342 16,000  Level Denver Center
05:05AM 41.8656 -106.1614 332° Northwest 297 342 16,000  Level Denver Center
05:06AM 41.9325 -106.2083 329° Northwest 297 342 16,000  Level Denver Center
05:07AM 42.0119 -106.2722 334° Northwest 297 342 16,000  Level Denver Center
05:08AM 42.0869 -106.3225 331° Northwest 297 342 16,000  Level Denver Center
05:09AM 42.1619 -106.3783 331° Northwest 297 342 16,000  Level Denver Center
05:10AM 42.2267 -106.4258 335° Northwest 297 342 16,000  Level Denver Center
05:11AM 42.3119 -106.4792 337° Northwest 304 350 16,000 -60 Level Denver Center
05:12AM 42.4283 -106.5461 342° North 313 360 15,900  Descending Salt Lake Center
05:13AM 42.5067 -106.5814 339° North 310 357 16,000  Climbing Salt Lake Center
05:14AM 42.5975 -106.6297 341° North 313 360 16,000  Level Salt Lake Center
05:15AM 42.6772 -106.6664 340° North 314 361 16,000  Level Salt Lake Center
05:16AM 42.7567 -106.7047 341° North 315 362 16,000  Level Salt Lake Center
05:17AM 42.8356 -106.7419 342° North 315 362 16,000  Level Salt Lake Center
05:18AM 42.9281 -106.7836 341° North 314 361 16,000  Level Salt Lake Center
05:19AM 43.0067 -106.8208 341° North 312 359 16,000  Level Salt Lake Center
05:20AM 43.0869 -106.8594 341° North 317 365 16,000  Level Salt Lake Center
05:21AM 43.1817 -106.9042 342° North 321 369 16,000  Level Salt Lake Center
05:22AM 43.2639 -106.9406 340° North 320 368 16,000  Level Salt Lake Center
05:23AM 43.3436 -106.9808 338° Northwest 319 367 16,000  Level Salt Lake Center
05:24AM 43.4228 -107.0244 335° Northwest 320 368 16,000  Level Salt Lake Center
05:25AM 43.5136 -107.0817 336° Northwest 322 371 16,000  Level Salt Lake Center
05:26AM 43.5914 -107.1300 336° Northwest 321 369 16,000  Level Salt Lake Center
05:27AM 43.6700 -107.1781 335° Northwest 322 371 16,000  Level Salt Lake Center
05:28AM 43.7489 -107.2292 336° Northwest 325 374 16,000 -60 Level Salt Lake Center
05:30AM 43.8406 -107.2858 336° Northwest 323 372 15,900  Descending Salt Lake Center
05:31AM 43.9200 -107.3353 334° Northwest 325 374 16,000  Climbing Salt Lake Center
05:32AM 43.9986 -107.3889 334° Northwest 328 377 16,000  Level Salt Lake Center
05:33AM 44.0758 -107.4422 333° Northwest 327 376 16,000  Level Salt Lake Center
05:34AM 44.1653 -107.5056 336° Northwest 324 373 16,000  Level Salt Lake Center
05:35AM 44.2408 -107.5533 340° North 319 367 16,000  Level Salt Lake Center
05:36AM 44.3175 -107.5917 340° North 311 358 16,000  Level Salt Lake Center
05:37AM 44.3911 -107.6292 339° North 301 346 16,000  Level Salt Lake Center
05:38AM 44.4753 -107.6733 338° Northwest 293 337 16,000 -60 Level Salt Lake Center
05:39AM 44.5453 -107.7136 336° Northwest 289 333 15,900  Descending Salt Lake Center
05:40AM 44.6161 -107.7572 337° Northwest 288 331 16,000  Climbing Salt Lake Center
05:41AM 44.6992 -107.8064 338° Northwest 289 333 16,000  Level Salt Lake Center
05:42AM 44.7703 -107.8475 338° Northwest 289 333 16,000  Level Salt Lake Center
05:43AM 44.8394 -107.8878 339° North 293 337 16,000  Level Salt Lake Center
05:44AM 44.9236 -107.9344 338° Northwest 295 339 16,000  Level Salt Lake Center
05:45AM 44.9964 -107.9761 336° Northwest 295 339 16,000  Level Salt Lake Center
05:46AM 45.0683 -108.0206 334° Northwest 295 339 16,000  Level Salt Lake Center
05:47AM 45.1489 -108.0753 334° Northwest 291 335 16,000 -600 Level Salt Lake Center
05:48AM 45.2214 -108.1256 333° Northwest 293 337 14,900 -1,440 Descending Salt Lake Center
05:49AM 45.2992 -108.1831 337° Northwest 313 360 13,200 -1,680 Descending Salt Lake Center
05:50AM 45.3775 -108.2300 335° Northwest 309 356 11,600 -1,440 Descending Salt Lake Center
05:51AM 45.4550 -108.2811 333° Northwest 311 358 10,400 -900 Descending Salt Lake Center
05:52AM 45.5278 -108.3339 338° Northwest 298 343 9,800 -660 Descending Salt Lake Center
05:53AM 45.5997 -108.3761 337° Northwest 286 329 9,100 -900 Descending Salt Lake Center
05:54AM 45.6772 -108.4222 336° Northwest 281 323 8,000 -960 Descending Salt Lake Center
05:55AM 45.7350 -108.4586 339° North 213 245 7,200 -1,440 Descending Salt Lake Center
05:56AM 45.7714 -108.4786 329° Northwest 134 154 5,200 -1,680 Descending Salt Lake Center
05:57AM 45.7967 -108.5000 329° Northwest 108 124 3,900 -1,320 Descending Salt Lake Center